createdAt,value
2018-07-31T00:00:49.991Z,1004.99
2018-07-31T00:01:50.000Z,1004.98
2018-07-31T00:02:50.007Z,1004.96
2018-07-31T00:03:50.012Z,1004.91
2018-07-31T00:04:50.018Z,1004.97
2018-07-31T00:05:50.025Z,1004.92
2018-07-31T00:06:50.032Z,1004.89
2018-07-31T00:07:50.040Z,1004.98
2018-07-31T00:08:50.045Z,1004.96
2018-07-31T00:09:50.050Z,1005.01
2018-07-31T00:10:50.059Z,1004.99
2018-07-31T00:11:50.065Z,1004.97
2018-07-31T00:12:50.070Z,1004.95
2018-07-31T00:13:50.079Z,1004.89
2018-07-31T00:14:50.084Z,1004.92
2018-07-31T00:15:50.091Z,1004.93
2018-07-31T00:16:50.098Z,1004.92
2018-07-31T00:17:50.104Z,1004.93
2018-07-31T00:18:50.114Z,1004.89
2018-07-31T00:19:50.117Z,1004.90
2018-07-31T00:20:50.123Z,1004.87
2018-07-31T00:21:50.133Z,1004.89
2018-07-31T00:22:50.137Z,1004.86
2018-07-31T00:23:50.143Z,1004.89
2018-07-31T00:24:50.150Z,1004.88
2018-07-31T00:25:50.156Z,1004.90
2018-07-31T00:26:50.163Z,1004.83
2018-07-31T00:27:50.169Z,1004.89
2018-07-31T00:28:50.175Z,1004.89
2018-07-31T00:29:50.182Z,1004.86
2018-07-31T00:30:50.190Z,1004.87
2018-07-31T00:31:50.194Z,1004.87
2018-07-31T00:32:50.201Z,1004.86
2018-07-31T00:33:50.209Z,1004.84
2018-07-31T00:34:50.214Z,1004.83
2018-07-31T00:40:25.238Z,1004.82
2018-07-31T00:41:25.242Z,1004.82
2018-07-31T00:42:25.247Z,1004.76
2018-07-31T00:43:25.253Z,1004.78
2018-07-31T00:44:25.263Z,1004.79
2018-07-31T00:45:25.266Z,1004.77
2018-07-31T00:46:25.270Z,1004.75
2018-07-31T00:47:25.276Z,1004.76
2018-07-31T00:48:25.282Z,1004.75
2018-07-31T00:49:25.306Z,1004.76
2018-07-31T00:50:25.294Z,1004.72
2018-07-31T00:51:25.299Z,1004.76
2018-07-31T00:52:25.306Z,1004.76
2018-07-31T00:53:25.312Z,1004.79
2018-07-31T00:54:25.320Z,1004.75
2018-07-31T00:55:25.326Z,1004.74
2018-07-31T00:56:25.329Z,1004.79
2018-07-31T00:57:25.337Z,1004.75
2018-07-31T00:58:25.344Z,1004.81
2018-07-31T00:59:25.369Z,1004.81
2018-07-31T01:00:25.354Z,1004.83
2018-07-31T01:01:25.360Z,1004.81
2018-07-31T01:02:25.366Z,1004.82
2018-07-31T01:03:25.371Z,1004.81
2018-07-31T01:04:25.386Z,1004.77
2018-07-31T01:05:25.384Z,1004.83
2018-07-31T01:06:25.389Z,1004.79
2018-07-31T01:07:25.395Z,1004.79
2018-07-31T01:08:25.400Z,1004.79
2018-07-31T01:09:25.411Z,1004.83
2018-07-31T01:10:25.412Z,1004.84
2018-07-31T01:11:25.419Z,1004.82
2018-07-31T01:12:25.424Z,1004.84
2018-07-31T01:13:25.430Z,1004.83
2018-07-31T01:14:25.437Z,1004.80
2018-07-31T01:15:25.441Z,1004.82
2018-07-31T01:16:25.447Z,1004.85
2018-07-31T01:17:25.454Z,1004.81
2018-07-31T01:18:25.459Z,1004.88
2018-07-31T01:19:25.464Z,1004.85
2018-07-31T01:20:25.470Z,1004.82
2018-07-31T01:21:25.477Z,1004.88
2018-07-31T01:22:25.481Z,1004.85
2018-07-31T01:23:25.488Z,1004.84
2018-07-31T01:24:25.493Z,1004.81
2018-07-31T01:25:25.503Z,1004.76
2018-07-31T01:26:25.504Z,1004.79
2018-07-31T01:27:25.512Z,1004.83
2018-07-31T01:28:25.516Z,1004.80
2018-07-31T01:29:25.583Z,1004.79
2018-07-31T01:30:25.527Z,1004.81
2018-07-31T01:31:25.534Z,1004.78
2018-07-31T01:32:25.542Z,1004.79
2018-07-31T01:33:25.544Z,1004.78
2018-07-31T01:34:25.549Z,1004.77
2018-07-31T01:35:25.556Z,1004.76
2018-07-31T01:36:25.561Z,1004.73
2018-07-31T01:37:25.566Z,1004.73
2018-07-31T01:38:25.571Z,1004.73
2018-07-31T01:39:25.577Z,1004.70
2018-07-31T01:40:25.582Z,1004.68
2018-07-31T01:41:25.588Z,1004.63
2018-07-31T01:42:25.592Z,1004.63
2018-07-31T01:43:25.598Z,1004.58
2018-07-31T01:44:25.607Z,1004.61
2018-07-31T01:45:25.608Z,1004.61
2018-07-31T01:46:25.614Z,1004.63
2018-07-31T01:47:25.621Z,1004.60
2018-07-31T01:48:25.626Z,1004.60
2018-07-31T01:49:25.631Z,1004.59
2018-07-31T01:50:25.637Z,1004.53
2018-07-31T01:51:25.641Z,1004.58
2018-07-31T01:52:25.647Z,1004.55
2018-07-31T01:53:25.656Z,1004.55
2018-07-31T01:54:25.656Z,1004.57
2018-07-31T01:55:25.662Z,1004.56
2018-07-31T01:56:25.668Z,1004.55
2018-07-31T01:57:25.673Z,1004.52
2018-07-31T01:58:25.678Z,1004.52
2018-07-31T01:59:25.683Z,1004.53
2018-07-31T02:00:25.692Z,1004.54
2018-07-31T02:01:25.694Z,1004.50
2018-07-31T02:02:25.700Z,1004.53
2018-07-31T02:03:25.704Z,1004.52
2018-07-31T02:04:25.711Z,1004.46
2018-07-31T02:05:25.716Z,1004.45
2018-07-31T02:06:25.728Z,1004.42
2018-07-31T02:07:25.725Z,1004.43
2018-07-31T02:08:25.735Z,1004.37
2018-07-31T02:09:25.787Z,1004.39
2018-07-31T02:10:25.740Z,1004.37
2018-07-31T02:11:25.746Z,1004.37
2018-07-31T02:12:25.749Z,1004.37
2018-07-31T02:13:25.757Z,1004.36
2018-07-31T02:14:25.760Z,1004.32
2018-07-31T02:15:25.765Z,1004.41
2018-07-31T02:16:25.771Z,1004.43
2018-07-31T02:17:25.808Z,1004.40
2018-07-31T02:18:25.780Z,1004.42
2018-07-31T02:19:25.786Z,1004.37
2018-07-31T02:20:25.794Z,1004.44
2018-07-31T02:21:25.796Z,1004.44
2018-07-31T02:22:25.801Z,1004.37
2018-07-31T02:23:25.807Z,1004.44
2018-07-31T02:24:25.814Z,1004.46
2018-07-31T02:25:25.817Z,1004.45
2018-07-31T02:26:25.822Z,1004.47
2018-07-31T02:27:25.826Z,1004.44
2018-07-31T02:28:25.904Z,1004.44
2018-07-31T02:29:25.837Z,1004.48
2018-07-31T02:30:25.841Z,1004.48
2018-07-31T02:31:25.846Z,1004.45
2018-07-31T02:32:25.851Z,1004.43
2018-07-31T02:33:25.855Z,1004.47
2018-07-31T02:34:25.861Z,1004.53
2018-07-31T02:35:25.864Z,1004.43
2018-07-31T02:36:25.870Z,1004.44
2018-07-31T02:37:25.875Z,1004.48
2018-07-31T02:38:25.880Z,1004.46
2018-07-31T02:39:25.884Z,1004.51
2018-07-31T02:40:25.888Z,1004.49
2018-07-31T02:41:25.893Z,1004.47
2018-07-31T02:42:25.900Z,1004.50
2018-07-31T02:43:25.903Z,1004.48
2018-07-31T02:44:25.907Z,1004.48
2018-07-31T02:45:25.913Z,1004.51
2018-07-31T02:46:25.916Z,1004.46
2018-07-31T02:47:25.921Z,1004.48
2018-07-31T02:48:25.927Z,1004.46
2018-07-31T02:49:25.930Z,1004.47
2018-07-31T02:50:25.939Z,1004.48
2018-07-31T02:51:25.939Z,1004.54
2018-07-31T02:52:25.945Z,1004.55
2018-07-31T02:53:25.952Z,1004.52
2018-07-31T02:54:25.953Z,1004.49
2018-07-31T02:55:25.958Z,1004.54
2018-07-31T02:56:25.964Z,1004.49
2018-07-31T02:57:25.973Z,1004.48
2018-07-31T02:58:25.972Z,1004.48
2018-07-31T02:59:25.982Z,1004.49
2018-07-31T03:00:25.982Z,1004.51
2018-07-31T03:01:25.986Z,1004.55
2018-07-31T03:02:25.990Z,1004.50
2018-07-31T03:03:25.995Z,1004.46
2018-07-31T03:04:26.005Z,1004.48
2018-07-31T03:05:26.006Z,1004.52
2018-07-31T03:06:26.009Z,1004.49
2018-07-31T03:07:26.012Z,1004.46
2018-07-31T03:08:26.019Z,1004.48
2018-07-31T03:09:26.025Z,1004.48
2018-07-31T03:10:26.030Z,1004.52
2018-07-31T03:11:26.032Z,1004.48
2018-07-31T03:12:26.036Z,1004.47
2018-07-31T03:13:26.042Z,1004.47
2018-07-31T03:14:26.044Z,1004.47
2018-07-31T03:15:26.049Z,1004.48
2018-07-31T03:16:26.054Z,1004.45
2018-07-31T03:17:26.058Z,1004.46
2018-07-31T03:18:26.064Z,1004.48
2018-07-31T03:19:26.068Z,1004.49
2018-07-31T03:20:26.072Z,1004.45
2018-07-31T03:21:26.076Z,1004.51
2018-07-31T03:22:26.082Z,1004.52
2018-07-31T03:23:26.085Z,1004.54
2018-07-31T03:24:26.089Z,1004.55
2018-07-31T03:25:26.094Z,1004.55
2018-07-31T03:26:26.098Z,1004.61
2018-07-31T03:27:26.102Z,1004.62
2018-07-31T03:28:26.107Z,1004.67
2018-07-31T03:29:26.111Z,1004.70
2018-07-31T03:30:26.114Z,1004.74
2018-07-31T03:31:26.120Z,1004.73
2018-07-31T03:32:26.126Z,1004.77
2018-07-31T03:33:26.129Z,1004.79
2018-07-31T03:34:26.132Z,1004.79
2018-07-31T03:35:26.137Z,1004.81
2018-07-31T03:36:26.142Z,1004.79
2018-07-31T03:37:26.150Z,1004.84
2018-07-31T03:38:26.150Z,1004.86
2018-07-31T03:39:26.155Z,1004.86
2018-07-31T03:40:26.159Z,1004.83
2018-07-31T03:41:26.164Z,1004.85
2018-07-31T03:42:26.167Z,1004.85
2018-07-31T03:43:26.173Z,1004.84
2018-07-31T03:44:26.176Z,1004.86
2018-07-31T03:45:26.181Z,1004.86
2018-07-31T03:46:26.185Z,1004.83
2018-07-31T03:47:26.190Z,1004.84
2018-07-31T03:48:26.194Z,1004.87
2018-07-31T03:49:26.198Z,1004.86
2018-07-31T03:50:26.203Z,1004.85
2018-07-31T03:51:26.207Z,1004.87
2018-07-31T03:52:26.212Z,1004.81
2018-07-31T03:53:26.216Z,1004.82
2018-07-31T03:54:26.218Z,1004.79
2018-07-31T03:55:26.267Z,1004.79
2018-07-31T03:56:26.292Z,1004.85
2018-07-31T03:57:26.233Z,1004.83
2018-07-31T03:58:26.238Z,1004.83
2018-07-31T03:59:26.240Z,1004.81
2018-07-31T04:00:26.245Z,1004.82
2018-07-31T04:01:26.252Z,1004.83
2018-07-31T04:02:26.254Z,1004.84
2018-07-31T04:03:26.260Z,1004.86
2018-07-31T04:04:26.263Z,1004.91
2018-07-31T04:05:26.316Z,1004.91
2018-07-31T04:06:26.273Z,1004.91
2018-07-31T04:07:26.275Z,1004.93
2018-07-31T04:08:26.286Z,1004.92
2018-07-31T04:09:26.286Z,1004.94
2018-07-31T04:10:26.288Z,1004.91
2018-07-31T04:11:26.296Z,1004.93
2018-07-31T04:12:26.301Z,1004.91
2018-07-31T04:13:26.302Z,1004.92
2018-07-31T04:14:26.307Z,1004.97
2018-07-31T04:15:26.310Z,1004.93
2018-07-31T04:16:26.315Z,1004.97
2018-07-31T04:17:26.320Z,1004.99
2018-07-31T04:18:26.323Z,1004.96
2018-07-31T04:19:26.330Z,1004.96
2018-07-31T04:20:26.340Z,1004.97
2018-07-31T04:21:26.346Z,1004.97
2018-07-31T04:22:26.342Z,1005.01
2018-07-31T04:23:26.346Z,1005.04
2018-07-31T04:24:26.351Z,1005.09
2018-07-31T04:25:26.357Z,1005.09
2018-07-31T04:26:26.360Z,1005.08
2018-07-31T04:27:26.364Z,1005.09
2018-07-31T04:28:26.370Z,1005.06
2018-07-31T04:29:26.373Z,1005.05
2018-07-31T04:30:26.378Z,1005.02
2018-07-31T04:31:26.383Z,1005.03
2018-07-31T04:32:26.388Z,1004.99
2018-07-31T04:33:26.392Z,1005.00
2018-07-31T04:34:26.396Z,1004.99
2018-07-31T04:35:26.401Z,1005.00
2018-07-31T04:36:26.405Z,1004.98
2018-07-31T04:37:26.410Z,1004.98
2018-07-31T04:38:26.414Z,1004.99
2018-07-31T04:39:26.419Z,1004.97
2018-07-31T04:40:26.425Z,1004.98
2018-07-31T04:41:26.429Z,1004.95
2018-07-31T04:42:26.490Z,1004.95
2018-07-31T04:43:26.438Z,1004.94
2018-07-31T04:44:26.443Z,1004.96
2018-07-31T04:45:26.447Z,1004.94
2018-07-31T04:46:26.451Z,1004.97
2018-07-31T04:47:26.457Z,1004.98
2018-07-31T04:48:26.461Z,1005.03
2018-07-31T04:49:26.465Z,1005.02
2018-07-31T04:50:26.546Z,1005.02
2018-07-31T04:51:26.474Z,1005.07
2018-07-31T04:52:26.480Z,1005.04
2018-07-31T04:53:26.485Z,1005.08
2018-07-31T04:54:26.488Z,1005.11
2018-07-31T04:55:26.494Z,1005.10
2018-07-31T04:56:26.499Z,1005.11
2018-07-31T04:57:26.505Z,1005.11
2018-07-31T04:58:26.510Z,1005.14
2018-07-31T04:59:26.518Z,1005.16
2018-07-31T05:00:26.518Z,1005.14
2018-07-31T05:01:26.522Z,1005.17
2018-07-31T05:02:26.527Z,1005.16
2018-07-31T05:03:26.534Z,1005.15
2018-07-31T05:04:26.589Z,1005.12
2018-07-31T05:05:26.547Z,1005.14
2018-07-31T05:06:26.549Z,1005.12
2018-07-31T05:07:26.552Z,1005.12
2018-07-31T05:08:26.558Z,1005.12
2018-07-31T05:09:26.564Z,1005.14
2018-07-31T05:10:26.569Z,1005.11
2018-07-31T05:11:26.574Z,1005.15
2018-07-31T05:12:26.580Z,1005.13
2018-07-31T05:13:26.586Z,1005.13
2018-07-31T05:14:26.590Z,1005.15
2018-07-31T05:15:26.595Z,1005.13
2018-07-31T05:16:26.601Z,1005.11
2018-07-31T05:17:26.656Z,1005.08
2018-07-31T05:18:26.677Z,1005.10
2018-07-31T05:19:26.617Z,1005.05
2018-07-31T05:20:26.622Z,1005.08
2018-07-31T05:21:26.627Z,1005.04
2018-07-31T05:22:26.633Z,1005.04
2018-07-31T05:23:26.640Z,1005.06
2018-07-31T05:24:26.649Z,1005.08
2018-07-31T05:25:26.651Z,1005.09
2018-07-31T05:26:26.657Z,1005.10
2018-07-31T05:27:26.661Z,1005.10
2018-07-31T05:28:26.670Z,1005.11
2018-07-31T05:29:26.673Z,1005.15
2018-07-31T05:30:26.679Z,1005.13
2018-07-31T05:31:26.684Z,1005.16
2018-07-31T05:32:26.696Z,1005.16
2018-07-31T05:33:26.699Z,1005.23
2018-07-31T05:34:26.702Z,1005.26
2018-07-31T05:35:26.707Z,1005.29
2018-07-31T05:36:26.713Z,1005.35
2018-07-31T05:37:26.720Z,1005.36
2018-07-31T05:38:26.724Z,1005.38
2018-07-31T05:39:26.749Z,1005.41
2018-07-31T05:40:26.736Z,1005.38
2018-07-31T05:41:26.747Z,1005.39
2018-07-31T05:42:26.749Z,1005.40
2018-07-31T05:43:26.754Z,1005.37
2018-07-31T05:44:26.760Z,1005.37
2018-07-31T05:45:26.766Z,1005.40
2018-07-31T05:46:26.770Z,1005.38
2018-07-31T05:47:26.782Z,1005.40
2018-07-31T05:48:26.784Z,1005.40
2018-07-31T05:49:26.789Z,1005.39
2018-07-31T05:50:26.794Z,1005.42
2018-07-31T05:51:26.800Z,1005.42
2018-07-31T05:52:26.807Z,1005.41
2018-07-31T05:53:26.815Z,1005.42
2018-07-31T05:54:26.817Z,1005.46
2018-07-31T05:55:26.825Z,1005.48
2018-07-31T05:56:26.831Z,1005.44
2018-07-31T05:57:26.898Z,1005.43
2018-07-31T05:58:26.843Z,1005.47
2018-07-31T05:59:26.848Z,1005.43
2018-07-31T06:00:26.855Z,1005.45
2018-07-31T06:01:26.865Z,1005.47
2018-07-31T06:02:26.866Z,1005.48
2018-07-31T06:03:26.893Z,1005.51
2018-07-31T06:04:26.880Z,1005.51
2018-07-31T06:05:26.885Z,1005.55
2018-07-31T06:06:26.890Z,1005.53
2018-07-31T06:07:26.898Z,1005.55
2018-07-31T06:08:26.904Z,1005.52
2018-07-31T06:09:26.944Z,1005.53
2018-07-31T06:10:26.943Z,1005.51
2018-07-31T06:11:26.987Z,1005.47
2018-07-31T06:12:26.932Z,1005.52
2018-07-31T06:13:26.936Z,1005.55
2018-07-31T06:14:26.943Z,1005.55
2018-07-31T06:15:26.954Z,1005.48
2018-07-31T06:16:26.956Z,1005.50
2018-07-31T06:17:26.962Z,1005.50
2018-07-31T06:18:26.969Z,1005.53
2018-07-31T06:19:26.978Z,1005.53
2018-07-31T06:20:26.981Z,1005.53
2018-07-31T06:21:26.989Z,1005.59
2018-07-31T06:22:26.999Z,1005.58
2018-07-31T06:23:27.004Z,1005.59
2018-07-31T06:24:27.011Z,1005.59
2018-07-31T06:25:27.040Z,1005.62
2018-07-31T06:26:27.023Z,1005.62
2018-07-31T06:27:27.031Z,1005.59
2018-07-31T06:28:27.041Z,1005.61
2018-07-31T06:29:27.045Z,1005.61
2018-07-31T06:30:27.053Z,1005.62
2018-07-31T06:31:27.059Z,1005.69
2018-07-31T06:32:27.069Z,1005.69
2018-07-31T06:33:27.076Z,1005.62
2018-07-31T06:34:27.084Z,1005.68
2018-07-31T06:35:27.089Z,1005.68
2018-07-31T06:36:27.097Z,1005.70
2018-07-31T06:37:27.103Z,1005.66
2018-07-31T06:38:27.114Z,1005.74
2018-07-31T06:39:27.120Z,1005.71
2018-07-31T06:40:27.179Z,1005.75
2018-07-31T06:41:27.135Z,1005.77
2018-07-31T06:42:27.143Z,1005.80
2018-07-31T06:43:27.165Z,1005.80
2018-07-31T06:44:27.159Z,1005.83
2018-07-31T06:45:27.168Z,1005.79
2018-07-31T06:46:27.176Z,1005.80
2018-07-31T06:47:27.183Z,1005.83
2018-07-31T06:48:27.192Z,1005.83
2018-07-31T06:49:27.198Z,1005.85
2018-07-31T06:50:27.208Z,1005.79
2018-07-31T06:51:27.216Z,1005.82
2018-07-31T06:52:27.224Z,1005.82
2018-07-31T06:53:27.233Z,1005.83
2018-07-31T06:54:27.240Z,1005.85
2018-07-31T06:55:27.249Z,1005.81
2018-07-31T06:56:27.258Z,1005.84
2018-07-31T06:57:27.265Z,1005.84
2018-07-31T06:58:27.274Z,1005.83
2018-07-31T06:59:27.283Z,1005.80
2018-07-31T07:00:27.293Z,1005.84
2018-07-31T07:01:27.300Z,1005.85
2018-07-31T07:02:27.315Z,1005.78
2018-07-31T07:03:27.317Z,1005.81
2018-07-31T07:04:27.326Z,1005.83
2018-07-31T07:05:27.337Z,1005.86
2018-07-31T07:06:27.342Z,1005.86
2018-07-31T07:07:27.350Z,1005.91
2018-07-31T07:08:27.360Z,1005.94
2018-07-31T07:09:27.376Z,1005.99
2018-07-31T07:10:27.376Z,1006.02
2018-07-31T07:11:27.388Z,1005.99
2018-07-31T07:12:27.396Z,1005.98
2018-07-31T07:13:27.405Z,1006.00
2018-07-31T07:14:27.414Z,1006.00
2018-07-31T07:15:27.464Z,1006.02
2018-07-31T07:16:27.432Z,1006.05
2018-07-31T07:17:27.440Z,1006.04
2018-07-31T07:18:27.451Z,1006.04
2018-07-31T07:19:27.459Z,1006.07
2018-07-31T07:20:27.468Z,1006.06
2018-07-31T07:21:27.477Z,1006.04
2018-07-31T07:22:27.489Z,1006.09
2018-07-31T07:23:27.494Z,1006.08
2018-07-31T07:24:27.503Z,1006.05
2018-07-31T07:25:27.513Z,1006.04
2018-07-31T07:26:27.523Z,1006.06
2018-07-31T07:27:27.532Z,1006.03
2018-07-31T07:28:27.541Z,1005.98
2018-07-31T07:29:27.552Z,1005.96
2018-07-31T07:30:27.563Z,1005.94
2018-07-31T07:31:27.569Z,1005.95
2018-07-31T07:32:27.578Z,1005.92
2018-07-31T07:33:27.588Z,1005.92
2018-07-31T07:34:27.596Z,1005.93
2018-07-31T07:35:27.606Z,1005.92
2018-07-31T07:36:27.615Z,1005.92
2018-07-31T07:37:27.625Z,1005.91
2018-07-31T07:38:27.634Z,1005.89
2018-07-31T07:39:27.646Z,1005.93
2018-07-31T07:40:27.653Z,1005.92
2018-07-31T07:41:27.664Z,1005.93
2018-07-31T07:42:27.672Z,1005.88
2018-07-31T07:43:27.681Z,1005.92
2018-07-31T07:44:27.696Z,1005.89
2018-07-31T07:45:27.702Z,1005.91
2018-07-31T07:46:27.712Z,1005.95
2018-07-31T07:47:27.727Z,1005.91
2018-07-31T07:48:27.781Z,1005.89
2018-07-31T07:49:27.792Z,1005.93
2018-07-31T07:50:27.751Z,1005.95
2018-07-31T07:51:27.764Z,1005.94
2018-07-31T07:52:27.771Z,1005.98
2018-07-31T07:53:27.781Z,1005.97
2018-07-31T07:54:27.791Z,1005.94
2018-07-31T07:55:27.801Z,1005.96
2018-07-31T07:56:27.811Z,1005.95
2018-07-31T07:57:27.822Z,1006.04
2018-07-31T07:58:27.836Z,1006.09
2018-07-31T07:59:27.844Z,1006.06
2018-07-31T08:00:27.852Z,1006.10
2018-07-31T08:01:27.863Z,1006.06
2018-07-31T08:02:27.874Z,1006.05
2018-07-31T08:03:27.889Z,1006.16
2018-07-31T08:04:27.898Z,1006.22
2018-07-31T08:05:27.907Z,1006.35
2018-07-31T08:06:27.916Z,1006.07
2018-07-31T08:07:27.928Z,1005.99
2018-07-31T08:08:27.939Z,1006.34
2018-07-31T08:09:27.950Z,1006.51
2018-07-31T08:10:27.966Z,1006.73
2018-07-31T08:11:27.972Z,1006.43
2018-07-31T08:12:27.984Z,1006.18
2018-07-31T08:13:27.998Z,1006.43
2018-07-31T08:14:28.007Z,1006.58
2018-07-31T08:15:28.022Z,1006.17
2018-07-31T08:16:28.033Z,1006.94
2018-07-31T08:17:28.046Z,1006.75
2018-07-31T08:18:28.057Z,1006.55
2018-07-31T08:19:28.070Z,1006.34
2018-07-31T08:20:28.106Z,1006.67
2018-07-31T08:21:28.097Z,1006.68
2018-07-31T08:22:28.111Z,1006.27
2018-07-31T08:23:28.123Z,1006.88
2018-07-31T08:24:28.137Z,1006.45
2018-07-31T08:25:28.150Z,1006.58
2018-07-31T08:26:28.165Z,1006.20
2018-07-31T08:27:28.179Z,1006.29
2018-07-31T08:28:28.194Z,1006.68
2018-07-31T08:29:28.209Z,1006.62
2018-07-31T08:30:28.222Z,1006.76
2018-07-31T08:31:28.236Z,1006.70
2018-07-31T08:32:28.251Z,1006.78
2018-07-31T08:33:28.273Z,1006.71
2018-07-31T08:34:28.317Z,1006.60
2018-07-31T08:35:28.292Z,1006.54
2018-07-31T08:36:28.308Z,1006.60
2018-07-31T08:37:28.321Z,1006.57
2018-07-31T08:38:28.334Z,1006.61
2018-07-31T08:39:28.350Z,1006.63
2018-07-31T08:40:28.367Z,1006.51
2018-07-31T08:41:28.456Z,1006.30
2018-07-31T08:42:28.395Z,1006.53
2018-07-31T08:43:28.431Z,1006.36
2018-07-31T08:44:28.427Z,1006.42
2018-07-31T08:45:28.439Z,1006.34
2018-07-31T08:46:28.454Z,1006.26
2018-07-31T08:47:28.472Z,1006.42
2018-07-31T08:48:28.487Z,1006.26
2018-07-31T08:49:28.500Z,1006.33
2018-07-31T08:50:28.518Z,1006.27
2018-07-31T08:51:28.531Z,1006.28
2018-07-31T08:52:28.546Z,1006.25
2018-07-31T08:53:28.562Z,1006.34
2018-07-31T08:54:28.576Z,1006.36
2018-07-31T08:55:28.591Z,1006.39
2018-07-31T08:56:28.605Z,1006.43
2018-07-31T08:57:28.621Z,1006.39
2018-07-31T08:58:28.635Z,1006.46
2018-07-31T08:59:28.653Z,1006.55
2018-07-31T09:00:28.665Z,1006.39
2018-07-31T09:01:28.680Z,1006.37
2018-07-31T09:02:28.699Z,1006.51
2018-07-31T09:03:28.710Z,1006.51
2018-07-31T09:04:28.723Z,1006.47
2018-07-31T09:05:28.739Z,1006.41
2018-07-31T09:06:28.756Z,1006.37
2018-07-31T09:07:28.767Z,1006.44
2018-07-31T09:08:28.887Z,1006.43
2018-07-31T09:09:28.797Z,1006.43
2018-07-31T09:10:28.810Z,1006.46
2018-07-31T09:11:28.825Z,1006.48
2018-07-31T09:12:28.840Z,1006.49
2018-07-31T09:13:28.854Z,1006.58
2018-07-31T09:14:28.868Z,1006.54
2018-07-31T09:15:28.883Z,1006.91
2018-07-31T09:16:28.896Z,1006.88
2018-07-31T09:17:28.922Z,1006.72
2018-07-31T09:18:28.928Z,1006.47
2018-07-31T09:19:28.940Z,1006.39
2018-07-31T09:20:28.953Z,1006.42
2018-07-31T09:21:28.968Z,1006.48
2018-07-31T09:22:28.982Z,1006.47
2018-07-31T09:23:28.996Z,1006.89
2018-07-31T09:24:29.036Z,1006.89
2018-07-31T09:25:29.023Z,1006.46
2018-07-31T09:26:29.038Z,1006.48
2018-07-31T09:27:29.053Z,1006.72
2018-07-31T09:28:29.066Z,1006.81
2018-07-31T09:29:29.081Z,1006.82
2018-07-31T09:30:29.146Z,1006.61
2018-07-31T09:31:29.112Z,1006.50
2018-07-31T09:32:29.125Z,1006.73
2018-07-31T09:33:29.141Z,1006.64
2018-07-31T09:34:29.152Z,1006.28
2018-07-31T09:35:29.185Z,1006.26
2018-07-31T09:36:29.225Z,1006.29
2018-07-31T09:37:29.196Z,1006.32
2018-07-31T09:38:29.211Z,1006.29
2018-07-31T09:39:29.229Z,1006.26
2018-07-31T09:40:29.242Z,1006.30
2018-07-31T09:41:29.256Z,1006.40
2018-07-31T09:42:29.269Z,1006.48
2018-07-31T09:43:29.286Z,1007.03
2018-07-31T09:44:29.300Z,1006.96
2018-07-31T09:45:29.316Z,1006.44
2018-07-31T09:46:29.331Z,1006.89
2018-07-31T09:47:29.344Z,1006.99
2018-07-31T09:48:29.407Z,1006.43
2018-07-31T09:49:29.374Z,1006.72
2018-07-31T09:50:29.391Z,1006.29
2018-07-31T09:51:29.404Z,1006.30
2018-07-31T09:52:29.419Z,1006.74
2018-07-31T09:53:29.433Z,1006.48
2018-07-31T09:54:29.448Z,1006.41
2018-07-31T09:55:29.463Z,1006.31
2018-07-31T09:56:29.479Z,1006.29
2018-07-31T09:57:29.493Z,1006.28
2018-07-31T09:58:29.507Z,1006.32
2018-07-31T09:59:29.522Z,1006.27
2018-07-31T10:00:29.540Z,1006.31
2018-07-31T10:01:29.552Z,1006.36
2018-07-31T10:02:29.568Z,1006.46
2018-07-31T10:03:29.580Z,1006.33
2018-07-31T10:04:29.594Z,1006.46
2018-07-31T10:05:29.609Z,1006.36
2018-07-31T10:06:29.625Z,1006.36
2018-07-31T10:07:29.636Z,1006.40
2018-07-31T10:08:29.652Z,1006.46
2018-07-31T10:09:29.664Z,1006.41
2018-07-31T10:10:29.679Z,1006.44
2018-07-31T10:11:29.693Z,1006.57
2018-07-31T10:12:29.709Z,1006.41
2018-07-31T10:13:29.721Z,1006.46
2018-07-31T10:14:29.776Z,1006.50
2018-07-31T10:15:29.749Z,1006.43
2018-07-31T10:16:29.764Z,1006.39
2018-07-31T10:17:29.776Z,1006.40
2018-07-31T10:18:29.790Z,1006.35
2018-07-31T10:19:29.804Z,1006.38
2018-07-31T10:20:29.820Z,1006.39
2018-07-31T10:21:29.833Z,1006.36
2018-07-31T10:22:29.845Z,1006.35
2018-07-31T10:23:29.860Z,1006.34
2018-07-31T10:24:29.881Z,1006.34
2018-07-31T10:25:29.887Z,1006.34
2018-07-31T10:26:29.900Z,1006.34
2018-07-31T10:27:29.914Z,1006.49
2018-07-31T10:28:29.928Z,1006.52
2018-07-31T10:29:29.941Z,1006.47
2018-07-31T10:30:29.962Z,1006.63
2018-07-31T10:31:29.968Z,1006.89
2018-07-31T10:32:29.996Z,1006.70
2018-07-31T10:33:29.994Z,1006.65
2018-07-31T10:34:30.008Z,1007.07
2018-07-31T10:35:30.022Z,1006.89
2018-07-31T10:36:30.036Z,1007.02
2018-07-31T10:37:30.100Z,1007.08
2018-07-31T10:38:30.062Z,1006.94
2018-07-31T10:39:30.077Z,1007.00
2018-07-31T10:40:30.090Z,1007.02
2018-07-31T10:41:30.107Z,1006.84
2018-07-31T10:42:30.119Z,1006.98
2018-07-31T10:43:30.131Z,1006.93
2018-07-31T10:44:30.145Z,1006.98
2018-07-31T10:45:30.162Z,1007.01
2018-07-31T10:46:30.174Z,1007.06
2018-07-31T10:47:30.188Z,1007.00
2018-07-31T10:48:30.204Z,1006.93
2018-07-31T10:49:30.217Z,1006.80
2018-07-31T10:50:30.281Z,1006.99
2018-07-31T10:51:30.246Z,1006.97
2018-07-31T10:52:30.262Z,1007.06
2018-07-31T10:53:30.276Z,1007.01
2018-07-31T10:54:30.289Z,1007.02
2018-07-31T10:55:30.304Z,1006.98
2018-07-31T10:56:30.318Z,1006.97
2018-07-31T10:57:30.332Z,1006.46
2018-07-31T10:58:30.392Z,1006.95
2018-07-31T10:59:30.406Z,1007.01
2018-07-31T11:00:30.377Z,1007.08
2018-07-31T11:01:30.392Z,1007.08
2018-07-31T11:02:30.405Z,1006.99
2018-07-31T11:03:30.423Z,1007.04
2018-07-31T11:04:30.434Z,1006.67
2018-07-31T11:05:30.449Z,1007.00
2018-07-31T11:06:30.528Z,1006.98
2018-07-31T11:07:30.477Z,1006.88
2018-07-31T11:08:30.493Z,1006.98
2018-07-31T11:09:30.509Z,1006.94
2018-07-31T11:10:30.523Z,1006.97
2018-07-31T11:11:30.538Z,1006.88
2018-07-31T11:12:30.553Z,1006.35
2018-07-31T11:13:30.567Z,1006.37
2018-07-31T11:14:30.579Z,1006.59
2018-07-31T11:15:30.596Z,1006.43
2018-07-31T11:16:30.609Z,1006.62
2018-07-31T11:17:30.625Z,1006.60
2018-07-31T11:18:30.638Z,1006.58
2018-07-31T11:19:30.653Z,1006.66
2018-07-31T11:20:30.670Z,1006.63
2018-07-31T11:21:30.683Z,1006.60
2018-07-31T11:22:30.695Z,1006.51
2018-07-31T11:23:30.710Z,1006.59
2018-07-31T11:24:30.726Z,1006.56
2018-07-31T11:25:30.740Z,1006.50
2018-07-31T11:26:30.751Z,1006.45
2018-07-31T11:27:30.775Z,1006.46
2018-07-31T11:28:30.786Z,1006.45
2018-07-31T11:29:30.796Z,1006.48
2018-07-31T11:30:30.807Z,1006.43
2018-07-31T11:31:30.822Z,1006.44
2018-07-31T11:32:30.836Z,1006.46
2018-07-31T11:33:30.851Z,1006.45
2018-07-31T11:34:30.861Z,1006.41
2018-07-31T11:35:30.879Z,1006.47
2018-07-31T11:36:30.890Z,1006.38
2018-07-31T11:37:30.903Z,1006.41
2018-07-31T11:38:30.938Z,1006.24
2018-07-31T11:39:30.932Z,1006.33
2018-07-31T11:40:30.942Z,1006.37
2018-07-31T11:41:30.958Z,1006.39
2018-07-31T11:42:30.969Z,1006.47
2018-07-31T11:43:30.982Z,1006.44
2018-07-31T11:44:30.997Z,1006.40
2018-07-31T11:45:31.007Z,1006.44
2018-07-31T11:46:31.021Z,1006.45
2018-07-31T11:47:31.034Z,1006.42
2018-07-31T11:48:31.048Z,1006.40
2018-07-31T11:49:31.060Z,1006.43
2018-07-31T11:50:31.074Z,1006.38
2018-07-31T11:51:31.086Z,1006.40
2018-07-31T11:52:31.099Z,1006.36
2018-07-31T11:53:31.113Z,1006.34
2018-07-31T11:54:31.122Z,1006.37
2018-07-31T11:55:31.136Z,1006.45
2018-07-31T11:56:31.150Z,1006.41
2018-07-31T11:57:31.161Z,1006.36
2018-07-31T11:58:31.174Z,1006.40
2018-07-31T11:59:31.186Z,1006.49
2018-07-31T12:00:31.198Z,1006.35
2018-07-31T12:01:31.211Z,1006.53
2018-07-31T12:02:31.224Z,1006.40
2018-07-31T12:03:31.236Z,1006.42
2018-07-31T12:04:31.248Z,1006.44
2018-07-31T12:05:31.262Z,1006.47
2018-07-31T12:06:31.272Z,1006.44
2018-07-31T12:07:31.285Z,1006.41
2018-07-31T12:08:31.297Z,1006.41
2018-07-31T12:09:31.310Z,1006.50
2018-07-31T12:10:31.321Z,1006.43